Westport, South Dakota
Current Conditions -  °F | °C
As of 3:38 AM on Friday 24 Oct 2014 (Local Time) from KABR Reporting Station
Haze Haze  
Wind Chill: 38°   Ceiling: Unl
Heat Index: 38°   Visibility: 1.7mi
Dew Point: 36°   Wind: 0mph
Humidity: 93%   Direction: NA
Pressure: 29.83"   Gusts: NA
Location:  45.65°N, 98.5°W
Report Text: KABR 240838Z AUTO 00000KT 1 3/4SM BR CLR 03/02 A2983 RMK AO2 VIS 1/2V5 T00330022
Loading
Personal Weather Stations






























Interactive Weather Map
Tropical Storm Tracking
New forecast layout! Learn more

10-Day Weather Forecast

Advertisements
Track Severe Weather on mobile